sensor_id;sensor_type;location;lat;lon;timestamp;P1;durP1;ratioP1;P2;durP2;ratioP2
24743;SDS011;12844;52.110;5.548;2022-08-07T00:01:07;1.50;;;1.10;;
24743;SDS011;12844;52.110;5.548;2022-08-07T00:03:33;2.20;;;0.98;;
24743;SDS011;12844;52.110;5.548;2022-08-07T00:05:59;2.88;;;1.00;;
24743;SDS011;12844;52.110;5.548;2022-08-07T00:08:24;1.90;;;1.00;;
24743;SDS011;12844;52.110;5.548;2022-08-07T00:10:51;1.58;;;1.20;;
24743;SDS011;12844;52.110;5.548;2022-08-07T00:13:17;2.33;;;1.20;;
24743;SDS011;12844;52.110;5.548;2022-08-07T00:15:44;2.38;;;1.20;;
24743;SDS011;12844;52.110;5.548;2022-08-07T00:18:11;2.00;;;1.13;;
24743;SDS011;12844;52.110;5.548;2022-08-07T00:20:37;1.38;;;1.10;;
24743;SDS011;12844;52.110;5.548;2022-08-07T00:23:03;3.20;;;1.15;;
24743;SDS011;12844;52.110;5.548;2022-08-07T00:25:32;2.05;;;1.00;;
24743;SDS011;12844;52.110;5.548;2022-08-07T00:27:58;2.20;;;1.50;;
24743;SDS011;12844;52.110;5.548;2022-08-07T00:30:24;2.30;;;1.23;;
24743;SDS011;12844;52.110;5.548;2022-08-07T00:32:50;1.25;;;1.10;;
24743;SDS011;12844;52.110;5.548;2022-08-07T00:35:19;2.17;;;1.20;;
24743;SDS011;12844;52.110;5.548;2022-08-07T00:37:45;4.57;;;1.40;;
24743;SDS011;12844;52.110;5.548;2022-08-07T00:40:12;2.22;;;1.10;;
24743;SDS011;12844;52.110;5.548;2022-08-07T00:42:38;1.23;;;1.10;;
24743;SDS011;12844;52.110;5.548;2022-08-07T00:45:05;1.50;;;1.20;;
24743;SDS011;12844;52.110;5.548;2022-08-07T00:47:32;1.83;;;1.25;;
24743;SDS011;12844;52.110;5.548;2022-08-07T00:49:57;1.90;;;1.40;;
24743;SDS011;12844;52.110;5.548;2022-08-07T00:52:23;2.85;;;1.27;;
24743;SDS011;12844;52.110;5.548;2022-08-07T00:54:49;1.13;;;1.02;;
24743;SDS011;12844;52.110;5.548;2022-08-07T00:57:16;1.98;;;1.35;;
24743;SDS011;12844;52.110;5.548;2022-08-07T00:59:42;1.33;;;1.20;;
24743;SDS011;12844;52.110;5.548;2022-08-07T01:02:08;1.20;;;1.10;;
24743;SDS011;12844;52.110;5.548;2022-08-07T01:04:35;1.38;;;1.10;;
24743;SDS011;12844;52.110;5.548;2022-08-07T01:07:02;1.63;;;1.33;;
24743;SDS011;12844;52.110;5.548;2022-08-07T01:09:28;1.25;;;0.90;;
24743;SDS011;12844;52.110;5.548;2022-08-07T01:11:54;1.10;;;1.02;;
24743;SDS011;12844;52.110;5.548;2022-08-07T01:14:21;1.70;;;1.25;;
24743;SDS011;12844;52.110;5.548;2022-08-07T01:16:47;1.38;;;1.27;;
24743;SDS011;12844;52.110;5.548;2022-08-07T01:19:14;1.63;;;1.13;;
24743;SDS011;12844;52.110;5.548;2022-08-07T01:21:41;1.58;;;1.25;;
24743;SDS011;12844;52.110;5.548;2022-08-07T01:24:07;2.08;;;1.30;;
24743;SDS011;12844;52.110;5.548;2022-08-07T01:26:33;2.33;;;1.00;;
24743;SDS011;12844;52.110;5.548;2022-08-07T01:28:59;1.92;;;1.30;;
24743;SDS011;12844;52.110;5.548;2022-08-07T01:31:25;1.42;;;1.23;;
24743;SDS011;12844;52.110;5.548;2022-08-07T01:33:57;1.20;;;1.10;;
24743;SDS011;12844;52.110;5.548;2022-08-07T01:36:24;1.63;;;1.30;;
24743;SDS011;12844;52.110;5.548;2022-08-07T01:38:51;1.33;;;1.10;;
24743;SDS011;12844;52.110;5.548;2022-08-07T01:41:17;1.25;;;1.15;;
24743;SDS011;12844;52.110;5.548;2022-08-07T01:43:46;1.58;;;1.17;;
24743;SDS011;12844;52.110;5.548;2022-08-07T01:46:13;1.58;;;1.20;;
24743;SDS011;12844;52.110;5.548;2022-08-07T01:48:40;2.00;;;1.20;;
24743;SDS011;12844;52.110;5.548;2022-08-07T01:51:07;1.95;;;1.40;;
24743;SDS011;12844;52.110;5.548;2022-08-07T01:53:35;2.42;;;1.10;;
24743;SDS011;12844;52.110;5.548;2022-08-07T01:56:06;1.85;;;1.23;;
24743;SDS011;12844;52.110;5.548;2022-08-07T01:58:38;1.55;;;1.17;;
24743;SDS011;12844;52.110;5.548;2022-08-07T02:01:10;1.95;;;1.15;;
24743;SDS011;12844;52.110;5.548;2022-08-07T02:03:42;1.30;;;1.20;;
24743;SDS011;12844;52.110;5.548;2022-08-07T02:06:13;1.38;;;1.27;;
24743;SDS011;12844;52.110;5.548;2022-08-07T02:08:41;2.33;;;1.17;;
24743;SDS011;12844;52.110;5.548;2022-08-07T02:11:09;1.73;;;1.25;;
24743;SDS011;12844;52.110;5.548;2022-08-07T02:13:35;1.20;;;1.10;;
24743;SDS011;12844;52.110;5.548;2022-08-07T02:16:02;1.27;;;1.17;;
24743;SDS011;12844;52.110;5.548;2022-08-07T02:18:30;1.38;;;1.20;;
24743;SDS011;12844;52.110;5.548;2022-08-07T02:21:00;1.33;;;1.17;;
24743;SDS011;12844;52.110;5.548;2022-08-07T02:23:27;1.70;;;1.25;;
24743;SDS011;12844;52.110;5.548;2022-08-07T02:25:55;1.55;;;1.27;;
24743;SDS011;12844;52.110;5.548;2022-08-07T02:28:22;1.20;;;1.10;;
24743;SDS011;12844;52.110;5.548;2022-08-07T02:30:51;1.50;;;1.20;;
24743;SDS011;12844;52.110;5.548;2022-08-07T02:43:40;3.05;;;1.20;;
24743;SDS011;12844;52.110;5.548;2022-08-07T02:46:07;1.40;;;1.30;;
24743;SDS011;12844;52.110;5.548;2022-08-07T02:48:35;1.38;;;1.25;;
24743;SDS011;12844;52.110;5.548;2022-08-07T02:51:04;1.45;;;1.20;;
24743;SDS011;12844;52.110;5.548;2022-08-07T02:53:34;2.60;;;1.13;;
24743;SDS011;12844;52.110;5.548;2022-08-07T02:56:02;2.60;;;1.10;;
24743;SDS011;12844;52.110;5.548;2022-08-07T02:58:29;1.20;;;1.10;;
24743;SDS011;12844;52.110;5.548;2022-08-07T03:00:56;1.27;;;1.00;;
24743;SDS011;12844;52.110;5.548;2022-08-07T03:03:24;1.15;;;0.95;;
24743;SDS011;12844;52.110;5.548;2022-08-07T03:05:51;2.17;;;1.17;;
24743;SDS011;12844;52.110;5.548;2022-08-07T03:08:18;1.50;;;1.30;;
24743;SDS011;12844;52.110;5.548;2022-08-07T03:10:45;1.13;;;1.00;;
24743;SDS011;12844;52.110;5.548;2022-08-07T03:13:11;1.63;;;1.40;;
24743;SDS011;12844;52.110;5.548;2022-08-07T03:15:38;2.38;;;1.30;;
24743;SDS011;12844;52.110;5.548;2022-08-07T03:18:04;1.75;;;1.17;;
24743;SDS011;12844;52.110;5.548;2022-08-07T03:20:30;1.65;;;1.13;;
24743;SDS011;12844;52.110;5.548;2022-08-07T03:22:56;1.38;;;1.23;;
24743;SDS011;12844;52.110;5.548;2022-08-07T03:25:23;1.27;;;1.10;;
24743;SDS011;12844;52.110;5.548;2022-08-07T03:27:51;1.70;;;1.30;;
24743;SDS011;12844;52.110;5.548;2022-08-07T03:30:17;2.58;;;1.40;;
24743;SDS011;12844;52.110;5.548;2022-08-07T03:32:45;2.17;;;1.17;;
24743;SDS011;12844;52.110;5.548;2022-08-07T03:35:13;1.27;;;1.10;;
24743;SDS011;12844;52.110;5.548;2022-08-07T03:37:43;2.28;;;1.20;;
24743;SDS011;12844;52.110;5.548;2022-08-07T03:40:10;2.20;;;1.30;;
24743;SDS011;12844;52.110;5.548;2022-08-07T03:42:37;1.67;;;1.58;;
24743;SDS011;12844;52.110;5.548;2022-08-07T03:45:03;2.33;;;1.38;;
24743;SDS011;12844;52.110;5.548;2022-08-07T03:47:30;1.48;;;1.20;;
24743;SDS011;12844;52.110;5.548;2022-08-07T03:49:56;1.20;;;1.10;;
24743;SDS011;12844;52.110;5.548;2022-08-07T03:52:24;1.33;;;1.23;;
24743;SDS011;12844;52.110;5.548;2022-08-07T03:54:56;1.35;;;1.25;;
24743;SDS011;12844;52.110;5.548;2022-08-07T03:57:23;1.75;;;1.20;;
24743;SDS011;12844;52.110;5.548;2022-08-07T03:59:50;1.20;;;1.10;;
24743;SDS011;12844;52.110;5.548;2022-08-07T04:02:17;1.58;;;1.27;;
24743;SDS011;12844;52.110;5.548;2022-08-07T04:04:42;1.40;;;1.30;;
24743;SDS011;12844;52.110;5.548;2022-08-07T04:07:08;1.30;;;1.20;;
24743;SDS011;12844;52.110;5.548;2022-08-07T04:09:34;1.88;;;1.50;;
24743;SDS011;12844;52.110;5.548;2022-08-07T04:12:00;1.50;;;1.40;;
24743;SDS011;12844;52.110;5.548;2022-08-07T04:14:27;1.70;;;1.30;;
24743;SDS011;12844;52.110;5.548;2022-08-07T04:16:53;1.48;;;1.38;;
24743;SDS011;12844;52.110;5.548;2022-08-07T04:19:19;1.80;;;1.48;;
24743;SDS011;12844;52.110;5.548;2022-08-07T04:21:44;1.40;;;1.30;;
24743;SDS011;12844;52.110;5.548;2022-08-07T04:24:10;2.03;;;1.13;;
24743;SDS011;12844;52.110;5.548;2022-08-07T04:26:38;1.40;;;1.30;;
24743;SDS011;12844;52.110;5.548;2022-08-07T04:29:05;1.42;;;1.20;;
24743;SDS011;12844;52.110;5.548;2022-08-07T04:31:31;2.30;;;1.33;;
24743;SDS011;12844;52.110;5.548;2022-08-07T04:33:57;1.48;;;1.33;;
24743;SDS011;12844;52.110;5.548;2022-08-07T04:36:23;2.33;;;1.48;;
24743;SDS011;12844;52.110;5.548;2022-08-07T04:38:49;2.35;;;1.30;;
24743;SDS011;12844;52.110;5.548;2022-08-07T04:41:15;1.70;;;1.40;;
24743;SDS011;12844;52.110;5.548;2022-08-07T04:43:41;2.63;;;1.45;;
24743;SDS011;12844;52.110;5.548;2022-08-07T04:46:13;1.42;;;1.33;;
24743;SDS011;12844;52.110;5.548;2022-08-07T04:54:33;1.23;;;1.13;;
24743;SDS011;12844;52.110;5.548;2022-08-07T05:00:00;1.75;;;1.40;;
24743;SDS011;12844;52.110;5.548;2022-08-07T05:05:29;1.52;;;1.25;;
24743;SDS011;12844;52.110;5.548;2022-08-07T05:10:40;1.70;;;1.30;;
24743;SDS011;12844;52.110;5.548;2022-08-07T05:13:18;1.80;;;1.45;;
24743;SDS011;12844;52.110;5.548;2022-08-07T05:15:50;1.40;;;1.30;;
24743;SDS011;12844;52.110;5.548;2022-08-07T05:18:28;1.35;;;1.25;;
24743;SDS011;12844;52.110;5.548;2022-08-07T05:21:04;1.83;;;1.30;;
24743;SDS011;12844;52.110;5.548;2022-08-07T05:26:04;1.75;;;1.40;;
24743;SDS011;12844;52.110;5.548;2022-08-07T05:28:34;3.85;;;1.38;;
24743;SDS011;12844;52.110;5.548;2022-08-07T05:31:01;7.13;;;2.05;;
24743;SDS011;12844;52.110;5.548;2022-08-07T05:33:27;8.32;;;1.80;;
24743;SDS011;12844;52.110;5.548;2022-08-07T05:35:54;3.83;;;1.70;;
24743;SDS011;12844;52.110;5.548;2022-08-07T05:38:20;3.30;;;1.65;;
24743;SDS011;12844;52.110;5.548;2022-08-07T05:40:47;1.92;;;1.50;;
24743;SDS011;12844;52.110;5.548;2022-08-07T05:43:13;2.63;;;1.30;;
24743;SDS011;12844;52.110;5.548;2022-08-07T05:45:41;4.05;;;1.40;;
24743;SDS011;12844;52.110;5.548;2022-08-07T05:48:07;2.78;;;1.42;;
24743;SDS011;12844;52.110;5.548;2022-08-07T05:50:33;2.05;;;1.33;;
24743;SDS011;12844;52.110;5.548;2022-08-07T05:53:00;3.80;;;1.60;;
24743;SDS011;12844;52.110;5.548;2022-08-07T05:55:26;1.45;;;1.35;;
24743;SDS011;12844;52.110;5.548;2022-08-07T05:57:53;4.40;;;1.60;;
24743;SDS011;12844;52.110;5.548;2022-08-07T06:00:19;3.30;;;1.40;;
24743;SDS011;12844;52.110;5.548;2022-08-07T06:02:49;3.67;;;1.63;;
24743;SDS011;12844;52.110;5.548;2022-08-07T06:05:17;3.55;;;1.80;;
24743;SDS011;12844;52.110;5.548;2022-08-07T06:07:45;1.98;;;1.58;;
24743;SDS011;12844;52.110;5.548;2022-08-07T06:10:12;2.17;;;1.52;;
24743;SDS011;12844;52.110;5.548;2022-08-07T06:12:38;8.00;;;1.80;;
24743;SDS011;12844;52.110;5.548;2022-08-07T06:15:03;3.13;;;1.90;;
24743;SDS011;12844;52.110;5.548;2022-08-07T06:17:30;4.25;;;1.70;;
24743;SDS011;12844;52.110;5.548;2022-08-07T06:19:57;2.60;;;1.55;;
24743;SDS011;12844;52.110;5.548;2022-08-07T06:22:23;2.20;;;1.50;;
24743;SDS011;12844;52.110;5.548;2022-08-07T06:24:50;1.95;;;1.60;;
24743;SDS011;12844;52.110;5.548;2022-08-07T06:27:22;1.52;;;1.40;;
24743;SDS011;12844;52.110;5.548;2022-08-07T06:29:48;2.45;;;1.58;;
24743;SDS011;12844;52.110;5.548;2022-08-07T06:32:14;2.60;;;1.60;;
24743;SDS011;12844;52.110;5.548;2022-08-07T06:34:39;2.60;;;1.73;;
24743;SDS011;12844;52.110;5.548;2022-08-07T06:37:05;5.60;;;1.65;;
24743;SDS011;12844;52.110;5.548;2022-08-07T06:39:30;3.15;;;1.80;;
24743;SDS011;12844;52.110;5.548;2022-08-07T06:42:02;3.55;;;1.60;;
24743;SDS011;12844;52.110;5.548;2022-08-07T06:44:37;1.70;;;1.50;;
24743;SDS011;12844;52.110;5.548;2022-08-07T06:47:04;2.58;;;1.90;;
24743;SDS011;12844;52.110;5.548;2022-08-07T06:49:30;2.42;;;1.80;;
24743;SDS011;12844;52.110;5.548;2022-08-07T06:51:55;4.97;;;1.88;;
24743;SDS011;12844;52.110;5.548;2022-08-07T06:54:24;4.25;;;1.73;;
24743;SDS011;12844;52.110;5.548;2022-08-07T06:56:51;2.97;;;1.60;;
24743;SDS011;12844;52.110;5.548;2022-08-07T06:59:19;2.60;;;1.80;;
24743;SDS011;12844;52.110;5.548;2022-08-07T07:01:48;2.65;;;1.98;;
24743;SDS011;12844;52.110;5.548;2022-08-07T07:04:14;2.58;;;1.95;;
24743;SDS011;12844;52.110;5.548;2022-08-07T07:06:40;3.67;;;1.90;;
24743;SDS011;12844;52.110;5.548;2022-08-07T07:09:19;4.00;;;1.60;;
24743;SDS011;12844;52.110;5.548;2022-08-07T07:12:01;3.53;;;2.00;;
24743;SDS011;12844;52.110;5.548;2022-08-07T07:14:40;2.50;;;1.77;;
24743;SDS011;12844;52.110;5.548;2022-08-07T07:17:34;3.47;;;2.00;;
24743;SDS011;12844;52.110;5.548;2022-08-07T07:20:25;2.90;;;2.00;;
24743;SDS011;12844;52.110;5.548;2022-08-07T07:22:55;4.22;;;1.92;;
24743;SDS011;12844;52.110;5.548;2022-08-07T07:25:21;3.03;;;2.10;;
24743;SDS011;12844;52.110;5.548;2022-08-07T07:27:51;2.88;;;1.80;;
24743;SDS011;12844;52.110;5.548;2022-08-07T07:30:21;2.63;;;1.80;;
24743;SDS011;12844;52.110;5.548;2022-08-07T07:32:51;3.45;;;1.90;;
24743;SDS011;12844;52.110;5.548;2022-08-07T07:35:18;3.58;;;2.08;;
24743;SDS011;12844;52.110;5.548;2022-08-07T07:37:46;5.18;;;1.90;;
24743;SDS011;12844;52.110;5.548;2022-08-07T07:40:15;2.22;;;2.00;;
24743;SDS011;12844;52.110;5.548;2022-08-07T07:42:43;4.80;;;2.00;;
24743;SDS011;12844;52.110;5.548;2022-08-07T07:45:11;4.15;;;2.13;;
24743;SDS011;12844;52.110;5.548;2022-08-07T07:47:40;3.40;;;2.00;;
24743;SDS011;12844;52.110;5.548;2022-08-07T07:50:08;4.43;;;1.80;;
24743;SDS011;12844;52.110;5.548;2022-08-07T07:52:35;9.43;;;2.20;;
24743;SDS011;12844;52.110;5.548;2022-08-07T07:55:02;2.45;;;2.10;;
24743;SDS011;12844;52.110;5.548;2022-08-07T07:57:29;4.80;;;2.13;;
24743;SDS011;12844;52.110;5.548;2022-08-07T07:59:57;3.55;;;1.77;;
24743;SDS011;12844;52.110;5.548;2022-08-07T08:02:25;4.10;;;1.75;;
24743;SDS011;12844;52.110;5.548;2022-08-07T08:04:54;4.53;;;2.15;;
24743;SDS011;12844;52.110;5.548;2022-08-07T08:07:20;3.60;;;1.55;;
24743;SDS011;12844;52.110;5.548;2022-08-07T08:09:47;4.45;;;1.88;;
24743;SDS011;12844;52.110;5.548;2022-08-07T08:12:15;5.07;;;1.83;;
24743;SDS011;12844;52.110;5.548;2022-08-07T08:14:42;6.18;;;1.80;;
24743;SDS011;12844;52.110;5.548;2022-08-07T08:17:08;4.07;;;2.30;;
24743;SDS011;12844;52.110;5.548;2022-08-07T08:19:36;3.28;;;1.90;;
24743;SDS011;12844;52.110;5.548;2022-08-07T08:22:03;2.85;;;1.80;;
24743;SDS011;12844;52.110;5.548;2022-08-07T08:24:51;4.63;;;1.90;;
24743;SDS011;12844;52.110;5.548;2022-08-07T08:27:37;3.42;;;1.90;;
24743;SDS011;12844;52.110;5.548;2022-08-07T08:32:33;4.82;;;2.00;;
24743;SDS011;12844;52.110;5.548;2022-08-07T08:35:02;4.22;;;1.90;;
24743;SDS011;12844;52.110;5.548;2022-08-07T08:37:29;5.20;;;1.95;;
24743;SDS011;12844;52.110;5.548;2022-08-07T08:39:58;4.72;;;1.83;;
24743;SDS011;12844;52.110;5.548;2022-08-07T08:42:26;4.32;;;2.00;;
24743;SDS011;12844;52.110;5.548;2022-08-07T08:45:54;4.25;;;1.90;;
24743;SDS011;12844;52.110;5.548;2022-08-07T08:48:03;3.30;;;2.00;;
24743;SDS011;12844;52.110;5.548;2022-08-07T08:50:47;4.38;;;1.83;;
24743;SDS011;12844;52.110;5.548;2022-08-07T08:53:23;2.80;;;1.73;;
24743;SDS011;12844;52.110;5.548;2022-08-07T08:56:10;3.45;;;1.90;;
24743;SDS011;12844;52.110;5.548;2022-08-07T11:19:10;5.43;;;1.95;;
24743;SDS011;12844;52.110;5.548;2022-08-07T11:21:44;6.35;;;1.85;;
24743;SDS011;12844;52.110;5.548;2022-08-07T11:24:21;3.70;;;1.90;;
24743;SDS011;12844;52.110;5.548;2022-08-07T11:30:09;4.10;;;1.88;;
24743;SDS011;12844;52.110;5.548;2022-08-07T11:32:46;10.52;;;1.80;;
24743;SDS011;12844;52.110;5.548;2022-08-07T11:35:18;3.45;;;1.95;;
24743;SDS011;12844;52.110;5.548;2022-08-07T11:43:30;4.22;;;1.65;;
24743;SDS011;12844;52.110;5.548;2022-08-07T12:02:15;2.95;;;1.63;;
24743;SDS011;12844;52.110;5.548;2022-08-07T12:08:10;4.35;;;1.80;;
24743;SDS011;12844;52.110;5.548;2022-08-07T12:10:47;4.63;;;2.03;;
24743;SDS011;12844;52.110;5.548;2022-08-07T12:15:53;3.47;;;1.60;;
24743;SDS011;12844;52.110;5.548;2022-08-07T12:18:28;6.18;;;1.90;;
24743;SDS011;12844;52.110;5.548;2022-08-07T12:21:19;5.68;;;2.05;;
24743;SDS011;12844;52.110;5.548;2022-08-07T12:24:16;5.63;;;2.33;;
24743;SDS011;12844;52.110;5.548;2022-08-07T12:26:41;6.13;;;2.10;;
24743;SDS011;12844;52.110;5.548;2022-08-07T12:31:37;7.43;;;2.08;;
24743;SDS011;12844;52.110;5.548;2022-08-07T12:34:19;6.50;;;2.10;;
24743;SDS011;12844;52.110;5.548;2022-08-07T12:36:46;4.97;;;1.58;;
24743;SDS011;12844;52.110;5.548;2022-08-07T12:39:13;2.28;;;1.60;;
24743;SDS011;12844;52.110;5.548;2022-08-07T12:41:43;5.55;;;1.63;;
24743;SDS011;12844;52.110;5.548;2022-08-07T12:44:09;7.25;;;2.10;;
24743;SDS011;12844;52.110;5.548;2022-08-07T12:46:39;3.55;;;1.48;;
24743;SDS011;12844;52.110;5.548;2022-08-07T12:49:21;4.88;;;1.92;;
24743;SDS011;12844;52.110;5.548;2022-08-07T12:52:12;6.32;;;1.90;;
24743;SDS011;12844;52.110;5.548;2022-08-07T12:57:29;14.57;;;2.60;;
24743;SDS011;12844;52.110;5.548;2022-08-07T12:59:58;3.17;;;2.15;;
24743;SDS011;12844;52.110;5.548;2022-08-07T13:10:29;4.03;;;1.77;;
24743;SDS011;12844;52.110;5.548;2022-08-07T13:15:52;6.88;;;1.73;;
24743;SDS011;12844;52.110;5.548;2022-08-07T13:29:07;2.90;;;1.52;;
24743;SDS011;12844;52.110;5.548;2022-08-07T13:31:41;3.65;;;1.92;;
24743;SDS011;12844;52.110;5.548;2022-08-07T13:34:42;4.57;;;1.55;;
24743;SDS011;12844;52.110;5.548;2022-08-07T13:37:48;3.17;;;1.85;;
24743;SDS011;12844;52.110;5.548;2022-08-07T13:40:26;2.53;;;1.65;;
24743;SDS011;12844;52.110;5.548;2022-08-07T13:43:01;4.75;;;2.05;;
24743;SDS011;12844;52.110;5.548;2022-08-07T13:45:30;3.92;;;1.60;;
24743;SDS011;12844;52.110;5.548;2022-08-07T13:47:59;4.32;;;1.63;;
24743;SDS011;12844;52.110;5.548;2022-08-07T13:50:28;3.15;;;1.60;;
24743;SDS011;12844;52.110;5.548;2022-08-07T13:52:55;2.97;;;1.35;;
24743;SDS011;12844;52.110;5.548;2022-08-07T13:55:23;1.90;;;1.67;;
24743;SDS011;12844;52.110;5.548;2022-08-07T13:58:06;3.42;;;1.67;;
24743;SDS011;12844;52.110;5.548;2022-08-07T14:00:53;2.67;;;1.52;;
24743;SDS011;12844;52.110;5.548;2022-08-07T14:03:20;3.00;;;1.65;;
24743;SDS011;12844;52.110;5.548;2022-08-07T14:05:52;2.92;;;2.10;;
24743;SDS011;12844;52.110;5.548;2022-08-07T14:08:21;2.53;;;1.42;;
24743;SDS011;12844;52.110;5.548;2022-08-07T14:10:49;1.60;;;1.33;;
24743;SDS011;12844;52.110;5.548;2022-08-07T14:13:17;3.42;;;1.80;;
24743;SDS011;12844;52.110;5.548;2022-08-07T14:15:52;2.53;;;1.73;;
24743;SDS011;12844;52.110;5.548;2022-08-07T14:21:34;3.45;;;1.80;;
24743;SDS011;12844;52.110;5.548;2022-08-07T14:24:08;2.05;;;1.48;;
24743;SDS011;12844;52.110;5.548;2022-08-07T14:26:52;3.05;;;1.58;;
24743;SDS011;12844;52.110;5.548;2022-08-07T14:29:22;2.10;;;1.70;;
24743;SDS011;12844;52.110;5.548;2022-08-07T14:31:51;2.67;;;1.52;;
24743;SDS011;12844;52.110;5.548;2022-08-07T14:34:17;1.83;;;1.50;;
24743;SDS011;12844;52.110;5.548;2022-08-07T14:36:47;1.70;;;1.60;;
24743;SDS011;12844;52.110;5.548;2022-08-07T14:39:13;2.72;;;1.70;;
24743;SDS011;12844;52.110;5.548;2022-08-07T14:41:40;2.05;;;1.45;;
24743;SDS011;12844;52.110;5.548;2022-08-07T14:44:08;2.05;;;1.60;;
24743;SDS011;12844;52.110;5.548;2022-08-07T14:46:34;2.78;;;1.77;;
24743;SDS011;12844;52.110;5.548;2022-08-07T14:49:02;1.65;;;1.38;;
24743;SDS011;12844;52.110;5.548;2022-08-07T14:51:29;2.30;;;1.60;;
24743;SDS011;12844;52.110;5.548;2022-08-07T14:53:56;2.42;;;1.42;;
24743;SDS011;12844;52.110;5.548;2022-08-07T14:56:25;2.95;;;1.58;;
24743;SDS011;12844;52.110;5.548;2022-08-07T14:58:53;2.50;;;1.50;;
24743;SDS011;12844;52.110;5.548;2022-08-07T15:01:25;4.25;;;1.70;;
24743;SDS011;12844;52.110;5.548;2022-08-07T15:03:57;2.15;;;1.42;;
24743;SDS011;12844;52.110;5.548;2022-08-07T15:06:24;1.77;;;1.65;;
24743;SDS011;12844;52.110;5.548;2022-08-07T15:08:53;2.00;;;1.55;;
24743;SDS011;12844;52.110;5.548;2022-08-07T15:11:25;3.25;;;1.52;;
24743;SDS011;12844;52.110;5.548;2022-08-07T15:13:56;2.38;;;1.60;;
24743;SDS011;12844;52.110;5.548;2022-08-07T15:16:27;2.78;;;1.58;;
24743;SDS011;12844;52.110;5.548;2022-08-07T15:19:17;2.35;;;1.58;;
24743;SDS011;12844;52.110;5.548;2022-08-07T15:21:47;2.25;;;1.67;;
24743;SDS011;12844;52.110;5.548;2022-08-07T15:27:03;2.10;;;1.67;;
24743;SDS011;12844;52.110;5.548;2022-08-07T15:29:38;1.85;;;1.42;;
24743;SDS011;12844;52.110;5.548;2022-08-07T15:32:09;2.10;;;1.70;;
24743;SDS011;12844;52.110;5.548;2022-08-07T15:34:42;2.72;;;1.58;;
24743;SDS011;12844;52.110;5.548;2022-08-07T15:37:10;1.70;;;1.38;;
24743;SDS011;12844;52.110;5.548;2022-08-07T15:39:36;1.85;;;1.30;;
24743;SDS011;12844;52.110;5.548;2022-08-07T15:42:05;2.00;;;1.55;;
24743;SDS011;12844;52.110;5.548;2022-08-07T15:44:44;1.52;;;1.33;;
24743;SDS011;12844;52.110;5.548;2022-08-07T15:47:13;1.80;;;1.70;;
24743;SDS011;12844;52.110;5.548;2022-08-07T15:49:41;1.60;;;1.50;;
24743;SDS011;12844;52.110;5.548;2022-08-07T15:52:10;1.98;;;1.63;;
24743;SDS011;12844;52.110;5.548;2022-08-07T15:54:38;2.45;;;1.50;;
24743;SDS011;12844;52.110;5.548;2022-08-07T15:57:09;2.38;;;1.63;;
24743;SDS011;12844;52.110;5.548;2022-08-07T15:59:38;2.30;;;1.50;;
24743;SDS011;12844;52.110;5.548;2022-08-07T16:02:08;2.92;;;1.60;;
24743;SDS011;12844;52.110;5.548;2022-08-07T16:04:46;1.50;;;1.40;;
24743;SDS011;12844;52.110;5.548;2022-08-07T16:07:12;3.05;;;1.40;;
24743;SDS011;12844;52.110;5.548;2022-08-07T16:09:48;2.85;;;1.40;;
24743;SDS011;12844;52.110;5.548;2022-08-07T16:12:24;3.63;;;1.90;;
24743;SDS011;12844;52.110;5.548;2022-08-07T16:18:15;3.53;;;2.42;;
24743;SDS011;12844;52.110;5.548;2022-08-07T16:23:43;3.78;;;2.10;;
24743;SDS011;12844;52.110;5.548;2022-08-07T16:40:12;7.65;;;2.75;;
24743;SDS011;12844;52.110;5.548;2022-08-07T16:45:58;4.82;;;2.33;;
24743;SDS011;12844;52.110;5.548;2022-08-07T17:00:03;8.48;;;3.25;;
24743;SDS011;12844;52.110;5.548;2022-08-07T17:08:09;4.82;;;2.58;;
24743;SDS011;12844;52.110;5.548;2022-08-07T17:15:47;2.78;;;2.42;;
24743;SDS011;12844;52.110;5.548;2022-08-07T17:20:53;3.55;;;2.22;;
24743;SDS011;12844;52.110;5.548;2022-08-07T17:23:38;6.07;;;2.50;;
24743;SDS011;12844;52.110;5.548;2022-08-07T17:26:18;4.55;;;2.67;;
24743;SDS011;12844;52.110;5.548;2022-08-07T17:34:28;2.80;;;2.50;;
24743;SDS011;12844;52.110;5.548;2022-08-07T17:37:19;3.22;;;2.47;;
24743;SDS011;12844;52.110;5.548;2022-08-07T22:52:45;2.67;;;2.47;;
24743;SDS011;12844;52.110;5.548;2022-08-07T22:55:27;3.10;;;2.58;;
24743;SDS011;12844;52.110;5.548;2022-08-07T22:58:26;2.95;;;2.65;;
24743;SDS011;12844;52.110;5.548;2022-08-07T23:21:01;3.10;;;2.60;;
24743;SDS011;12844;52.110;5.548;2022-08-07T23:23:49;2.90;;;2.70;;
24743;SDS011;12844;52.110;5.548;2022-08-07T23:32:23;3.00;;;2.70;;
24743;SDS011;12844;52.110;5.548;2022-08-07T23:34:50;3.35;;;2.58;;
24743;SDS011;12844;52.110;5.548;2022-08-07T23:43:02;2.80;;;2.60;;
24743;SDS011;12844;52.110;5.548;2022-08-07T23:51:15;2.80;;;2.60;;
24743;SDS011;12844;52.110;5.548;2022-08-07T23:53:48;2.75;;;2.55;;
